Time;durP1;ratioP1;P1;durP2;ratioP2;P2;SDS_P1;SDS_P2;PMS_P1;PMS_P2;Temp;Humidity;BMP_temperature;BMP_pressure;BME280_temperature;BME280_humidity;BME280_pressure;Samples;Min_cycle;Max_cycle;Signal;HPM_P1;HPM_P2
2023/01/09 00:02:01;;;;;;;0.80;0.30;;;8.80;99.90;;;;;;5129298;27;20537;-48
2023/01/09 00:04:28;;;;;;;0.90;0.40;;;9.30;99.90;;;;;;5127181;27;20541;-47
2023/01/09 00:06:55;;;;;;;0.80;0.40;;;9.10;99.90;;;;;;5126206;27;20481;-48
2023/01/09 00:09:22;;;;;;;1.00;0.60;;;9.10;99.90;;;;;;5130332;27;20446;-48
2023/01/09 00:11:49;;;;;;;1.00;0.63;;;9.00;99.90;;;;;;5125572;27;20530;-48
2023/01/09 00:14:17;;;;;;;0.90;0.50;;;8.80;99.90;;;;;;5121572;27;20552;-47
2023/01/09 00:16:44;;;;;;;0.80;0.40;;;8.70;99.90;;;;;;5111103;27;20443;-48
2023/01/09 00:19:13;;;;;;;0.87;0.50;;;8.70;99.90;;;;;;5111147;28;20980;-48
2023/01/09 00:21:40;;;;;;;0.80;0.43;;;8.60;99.90;;;;;;5126209;27;20550;-47
2023/01/09 00:24:07;;;;;;;0.90;0.50;;;8.70;99.90;;;;;;5126710;27;20603;-48
2023/01/09 00:26:34;;;;;;;0.80;0.40;;;9.00;99.90;;;;;;5122846;27;20478;-45
2023/01/09 00:29:01;;;;;;;0.97;0.40;;;8.90;99.90;;;;;;5115309;27;20510;-47
2023/01/09 00:31:28;;;;;;;0.80;0.40;;;8.80;99.90;;;;;;5117258;27;20533;-47
2023/01/09 00:33:58;;;;;;;0.80;0.30;;;8.70;99.90;;;;;;5112874;27;20991;-48
2023/01/09 00:36:27;;;;;;;0.80;0.40;;;8.80;99.90;;;;;;5130710;27;20476;-48
2023/01/09 00:38:54;;;;;;;0.83;0.40;;;8.80;99.90;;;;;;5118857;27;20518;-48
2023/01/09 00:41:31;;;;;;;0.90;0.50;;;8.80;99.90;;;;;;5110662;28;20530;-48
2023/01/09 00:44:01;;;;;;;1.17;0.50;;;8.70;99.90;;;;;;5126678;27;20493;-49
2023/01/09 00:46:31;;;;;;;0.90;0.40;;;8.60;99.90;;;;;;5118195;27;20537;-47
2023/01/09 00:48:59;;;;;;;0.80;0.40;;;8.80;99.90;;;;;;5110478;28;20502;-49
2023/01/09 00:51:27;;;;;;;1.03;0.47;;;8.90;99.90;;;;;;5125204;27;20533;-48
2023/01/09 00:53:54;;;;;;;0.90;0.50;;;9.00;99.90;;;;;;5129927;27;20998;-48
2023/01/09 00:56:24;;;;;;;1.13;0.50;;;8.90;99.90;;;;;;5130410;27;20442;-48
2023/01/09 00:58:52;;;;;;;0.83;0.40;;;8.80;99.90;;;;;;5115308;27;20590;-47
2023/01/09 01:01:19;;;;;;;0.80;0.30;;;8.60;99.90;;;;;;5123676;27;20867;-48
2023/01/09 01:03:45;;;;;;;1.00;0.40;;;8.50;99.90;;;;;;5130271;27;20475;-48
2023/01/09 01:08:58;;;;;;;0.80;0.43;;;8.50;99.90;;;;;;5113377;28;20505;-51
2023/01/09 01:11:25;;;;;;;0.90;0.50;;;8.60;99.90;;;;;;5109688;28;20470;-49
2023/01/09 01:13:52;;;;;;;1.07;0.40;;;8.70;99.90;;;;;;5108473;28;20492;-45
2023/01/09 01:16:20;;;;;;;0.90;0.50;;;8.70;99.90;;;;;;5109837;28;20515;-50
2023/01/09 01:18:47;;;;;;;1.83;1.50;;;8.70;99.90;;;;;;5109131;28;20462;-47
2023/01/09 01:21:15;;;;;;;1.90;1.50;;;8.60;99.90;;;;;;5109500;28;20526;-45
2023/01/09 01:23:42;;;;;;;2.60;1.23;;;8.60;99.90;;;;;;5109503;28;20868;-50
2023/01/09 01:26:13;;;;;;;1.50;0.70;;;8.60;99.90;;;;;;5108901;28;20517;-48
2023/01/09 01:28:41;;;;;;;1.30;0.60;;;8.80;99.90;;;;;;5110343;28;20499;-49
2023/01/09 01:31:08;;;;;;;2.27;0.60;;;9.00;99.90;;;;;;5110052;28;20541;-48
2023/01/09 01:33:36;;;;;;;1.20;0.60;;;9.10;99.90;;;;;;5109139;28;20478;-48
2023/01/09 01:36:04;;;;;;;1.63;0.70;;;9.30;99.90;;;;;;5110177;28;20869;-49
2023/01/09 01:38:31;;;;;;;0.90;0.50;;;9.50;99.90;;;;;;5109903;28;20526;-50
2023/01/09 01:40:59;;;;;;;0.90;0.50;;;9.20;99.90;;;;;;5110035;28;20514;-48
2023/01/09 01:43:27;;;;;;;8.70;5.10;;;8.90;99.90;;;;;;5110791;28;20467;-48
2023/01/09 01:45:54;;;;;;;5.17;4.57;;;6.60;99.90;;;;;;5113947;28;20478;-47
2023/01/09 01:48:27;;;;;;;5.57;4.37;;;5.60;99.90;;;;;;5113574;28;20487;-49
2023/01/09 01:50:58;;;;;;;8.90;6.10;;;5.50;99.90;;;;;;5113536;28;21010;-47
2023/01/09 01:53:32;;;;;;;7.33;6.33;;;4.80;99.90;;;;;;5113104;28;20474;-47
2023/01/09 01:56:06;;;;;;;7.03;6.33;;;4.30;99.90;;;;;;5114058;28;20490;-47
2023/01/09 01:58:38;;;;;;;7.27;6.60;;;4.00;99.90;;;;;;5113040;28;20852;-48
2023/01/09 02:01:06;;;;;;;9.23;6.83;;;3.80;99.90;;;;;;5113547;28;20468;-46
2023/01/09 02:03:33;;;;;;;7.23;5.00;;;3.70;99.90;;;;;;5112342;28;20527;-47
2023/01/09 02:06:03;;;;;;;5.10;4.20;;;4.00;99.90;;;;;;5113711;28;20938;-50
2023/01/09 02:08:30;;;;;;;5.17;4.00;;;5.30;99.90;;;;;;5112538;28;20558;-47
2023/01/09 02:10:57;;;;;;;5.63;4.27;;;5.80;99.90;;;;;;5118024;27;20981;-49
2023/01/09 02:13:25;;;;;;;7.10;4.70;;;5.50;99.90;;;;;;5131119;27;20521;-47
2023/01/09 02:16:08;;;;;;;6.23;5.40;;;5.10;99.90;;;;;;5133594;27;20496;-47
2023/01/09 02:18:44;;;;;;;6.90;4.73;;;4.60;99.90;;;;;;5133203;27;20516;-47
2023/01/09 02:21:21;;;;;;;6.73;5.17;;;4.50;99.90;;;;;;5118617;27;21001;-47
2023/01/09 02:24:36;;;;;;;6.57;5.60;;;4.60;99.90;;;;;;5112523;28;20638;-46
2023/01/09 02:27:18;;;;;;;11.80;5.20;;;4.30;99.90;;;;;;5113415;28;20501;-47
2023/01/09 02:30:06;;;;;;;7.47;5.00;;;4.50;99.90;;;;;;5121540;27;20541;-47
2023/01/09 02:32:45;;;;;;;5.37;4.83;;;4.80;99.90;;;;;;5120362;27;20473;-47
2023/01/09 02:35:23;;;;;;;8.10;5.43;;;4.80;99.90;;;;;;5115949;27;20488;-47
2023/01/09 02:37:57;;;;;;;7.07;5.67;;;4.60;99.90;;;;;;5133580;27;20442;-47
2023/01/09 02:40:29;;;;;;;6.57;5.37;;;4.30;99.90;;;;;;5124521;27;20468;-50
2023/01/09 02:42:59;;;;;;;6.43;5.80;;;4.30;99.90;;;;;;5112596;28;20475;-47
2023/01/09 02:45:26;;;;;;;6.13;5.50;;;4.40;99.90;;;;;;5111849;28;20493;-47
2023/01/09 02:47:54;;;;;;;7.73;6.03;;;4.30;99.90;;;;;;5116112;27;20476;-47
2023/01/09 02:50:24;;;;;;;5.53;4.97;;;4.20;99.90;;;;;;5124988;27;20473;-48
2023/01/09 02:53:11;;;;;;;5.77;5.20;;;4.40;99.90;;;;;;5110996;28;20884;-45
2023/01/09 02:55:51;;;;;;;7.73;5.17;;;4.50;99.90;;;;;;5110802;27;20494;-47
2023/01/09 02:58:33;;;;;;;6.20;5.30;;;4.60;99.90;;;;;;5121680;27;20531;-50
2023/01/09 03:01:12;;;;;;;6.23;5.40;;;4.60;99.90;;;;;;5118606;27;20934;-48
2023/01/09 03:03:47;;;;;;;6.20;4.83;;;4.60;99.90;;;;;;5110451;28;20470;-48
2023/01/09 03:06:20;;;;;;;7.07;5.40;;;4.60;99.90;;;;;;5111695;27;20449;-44
2023/01/09 03:08:50;;;;;;;6.70;6.07;;;4.60;99.90;;;;;;5112352;27;20502;-48
2023/01/09 03:11:17;;;;;;;8.43;5.20;;;4.40;99.90;;;;;;5112243;28;20442;-47
2023/01/09 03:13:49;;;;;;;7.73;5.00;;;4.50;99.90;;;;;;5110068;28;20474;-50
2023/01/09 03:16:20;;;;;;;5.27;4.70;;;4.60;99.90;;;;;;5112315;27;20545;-46
2023/01/09 03:18:51;;;;;;;5.80;4.40;;;4.70;99.90;;;;;;5112473;27;20550;-48
2023/01/09 03:21:20;;;;;;;7.70;5.57;;;4.80;99.90;;;;;;5122485;27;21070;-46
2023/01/09 03:23:53;;;;;;;5.53;4.93;;;4.80;99.90;;;;;;5131338;27;20484;-48
2023/01/09 03:26:20;;;;;;;5.87;4.90;;;4.70;99.90;;;;;;5130912;27;20517;-47
2023/01/09 03:28:48;;;;;;;5.00;4.50;;;4.40;99.90;;;;;;5129289;27;20563;-47
2023/01/09 03:31:15;;;;;;;5.23;4.73;;;4.30;99.90;;;;;;5116398;27;20470;-43
2023/01/09 03:33:42;;;;;;;5.73;4.20;;;4.50;99.90;;;;;;5109742;28;20533;-50
2023/01/09 03:36:12;;;;;;;6.33;4.87;;;4.50;99.90;;;;;;5122014;27;20528;-47
2023/01/09 03:38:39;;;;;;;6.47;5.83;;;4.40;99.90;;;;;;5116078;27;20527;-47
2023/01/09 03:41:06;;;;;;;7.00;5.67;;;4.50;99.90;;;;;;5112014;27;20478;-47
2023/01/09 03:43:34;;;;;;;7.97;5.60;;;4.50;99.90;;;;;;5110891;28;20435;-47
2023/01/09 03:46:01;;;;;;;7.63;6.07;;;4.10;99.90;;;;;;5111568;28;20481;-49
2023/01/09 03:48:28;;;;;;;9.50;6.20;;;3.90;99.90;;;;;;5124370;27;20502;-47
2023/01/09 03:50:56;;;;;;;6.07;4.60;;;4.00;99.90;;;;;;5125356;27;20527;-49
2023/01/09 03:53:27;;;;;;;4.10;3.43;;;4.30;99.90;;;;;;5131337;27;20520;-47
2023/01/09 03:55:56;;;;;;;5.57;3.60;;;4.30;99.90;;;;;;5132302;27;20518;-47
2023/01/09 03:58:23;;;;;;;5.97;4.67;;;4.80;99.90;;;;;;5131553;27;20857;-47
2023/01/09 04:00:51;;;;;;;6.47;5.07;;;4.80;99.90;;;;;;5121868;27;20482;-47
2023/01/09 04:03:20;;;;;;;5.67;5.10;;;4.50;99.90;;;;;;5110234;28;20447;-48
2023/01/09 04:05:49;;;;;;;5.30;4.80;;;4.60;99.90;;;;;;5128260;27;20496;-47
2023/01/09 04:08:16;;;;;;;6.57;5.83;;;4.50;99.90;;;;;;5130401;27;21027;-45
2023/01/09 04:10:46;;;;;;;7.10;5.67;;;4.40;99.90;;;;;;5131736;27;20532;-47
2023/01/09 04:13:12;;;;;;;5.50;4.93;;;4.30;99.90;;;;;;5113851;27;20897;-47
2023/01/09 04:15:39;;;;;;;6.87;5.60;;;4.30;99.90;;;;;;5111215;27;20542;-47
2023/01/09 04:18:06;;;;;;;11.03;6.27;;;4.30;99.90;;;;;;5121093;27;20476;-49
2023/01/09 04:20:33;;;;;;;8.73;5.83;;;4.20;99.90;;;;;;5124568;27;20477;-47
2023/01/09 04:23:00;;;;;;;5.90;5.30;;;4.20;99.90;;;;;;5110231;28;20891;-47
2023/01/09 04:25:27;;;;;;;6.20;4.87;;;4.30;99.90;;;;;;5110280;27;20878;-48
2023/01/09 04:27:56;;;;;;;6.53;4.77;;;4.50;99.90;;;;;;5118812;27;20532;-47
2023/01/09 04:30:23;;;;;;;5.43;4.50;;;4.60;99.90;;;;;;5131238;27;21108;-47
2023/01/09 04:32:50;;;;;;;6.23;4.70;;;4.60;99.90;;;;;;5131500;27;20470;-50
2023/01/09 04:35:17;;;;;;;6.37;5.60;;;4.60;99.90;;;;;;5127942;27;20461;-47
2023/01/09 04:37:44;;;;;;;6.87;4.67;;;4.50;99.90;;;;;;5131135;27;20473;-47
2023/01/09 04:40:12;;;;;;;7.07;4.93;;;4.50;99.90;;;;;;5131052;27;20571;-47
2023/01/09 04:42:40;;;;;;;7.93;5.90;;;4.60;99.90;;;;;;5131299;27;20441;-47
2023/01/09 04:45:14;;;;;;;6.67;5.77;;;4.50;99.90;;;;;;5122644;27;20494;-47
2023/01/09 04:47:41;;;;;;;6.23;5.37;;;4.50;99.90;;;;;;5116317;27;20465;-47
2023/01/09 04:50:09;;;;;;;4.87;4.37;;;4.50;99.90;;;;;;5131327;27;20576;-47
2023/01/09 04:52:36;;;;;;;6.60;5.20;;;4.60;99.90;;;;;;5130441;27;20441;-47
2023/01/09 04:55:04;;;;;;;19.47;15.07;;;4.70;99.90;;;;;;5123176;27;20901;-47
2023/01/09 04:57:31;;;;;;;32.43;25.90;;;4.70;99.90;;;;;;5111400;28;20442;-48
2023/01/09 04:59:57;;;;;;;20.67;16.43;;;4.80;99.90;;;;;;5119430;27;20533;-48
2023/01/09 05:02:26;;;;;;;12.20;9.47;;;4.70;99.90;;;;;;5130187;27;20521;-47
2023/01/09 05:04:53;;;;;;;7.33;6.70;;;4.60;99.90;;;;;;5128304;27;20547;-47
2023/01/09 05:07:19;;;;;;;7.00;5.40;;;4.50;99.90;;;;;;5129477;27;20502;-48
2023/01/09 05:09:46;;;;;;;5.07;4.67;;;4.50;99.90;;;;;;5115032;27;20555;-48
2023/01/09 05:12:13;;;;;;;6.03;5.43;;;4.60;99.90;;;;;;5110730;28;20517;-47
2023/01/09 05:14:40;;;;;;;3.93;3.53;;;4.60;99.90;;;;;;5113841;28;20487;-49
2023/01/09 05:17:07;;;;;;;4.00;2.83;;;4.80;99.90;;;;;;5129384;27;20524;-49
2023/01/09 05:19:35;;;;;;;4.50;4.00;;;4.90;99.90;;;;;;5130219;27;21168;-47
2023/01/09 05:22:02;;;;;;;6.27;5.67;;;4.90;99.90;;;;;;5114977;28;20541;-47
2023/01/09 05:24:29;;;;;;;6.13;5.53;;;4.80;99.90;;;;;;5113410;27;20498;-47
2023/01/09 05:26:56;;;;;;;6.97;5.43;;;4.70;99.90;;;;;;5117865;27;20873;-47
2023/01/09 05:29:23;;;;;;;12.00;6.53;;;4.70;99.90;;;;;;5130026;27;20501;-50
2023/01/09 05:31:51;;;;;;;11.20;6.30;;;4.60;99.90;;;;;;5120715;27;20519;-47
2023/01/09 05:34:18;;;;;;;9.90;6.07;;;4.60;99.90;;;;;;5132974;27;20508;-47
2023/01/09 05:36:46;;;;;;;5.70;5.20;;;4.50;99.90;;;;;;5120375;27;20693;-47
2023/01/09 05:39:13;;;;;;;7.93;6.73;;;4.40;99.90;;;;;;5112465;28;20955;-51
2023/01/09 05:41:40;;;;;;;16.43;9.53;;;4.10;99.90;;;;;;5119679;27;20477;-47
2023/01/09 05:44:07;;;;;;;6.87;6.27;;;4.00;99.90;;;;;;5124889;27;20553;-47
2023/01/09 05:46:34;;;;;;;6.70;5.00;;;4.10;99.90;;;;;;5129100;27;20506;-48
2023/01/09 05:49:01;;;;;;;7.47;4.90;;;4.30;99.90;;;;;;5116200;27;20495;-47
2023/01/09 05:51:30;;;;;;;10.13;7.17;;;4.60;99.90;;;;;;5118641;27;20435;-49
2023/01/09 05:53:59;;;;;;;14.10;8.60;;;4.60;99.90;;;;;;5131786;27;20465;-47
2023/01/09 05:56:26;;;;;;;9.47;7.50;;;4.60;99.90;;;;;;5123490;27;20446;-47
2023/01/09 05:58:52;;;;;;;8.33;7.53;;;4.10;99.90;;;;;;5124977;27;20472;-50
2023/01/09 06:01:19;;;;;;;10.43;6.70;;;3.90;99.90;;;;;;5113698;27;20525;-48
2023/01/09 06:03:46;;;;;;;9.80;6.53;;;4.10;99.90;;;;;;5120913;27;20485;-47
2023/01/09 06:06:13;;;;;;;8.90;6.87;;;4.30;99.90;;;;;;5123224;27;20997;-48
2023/01/09 06:08:40;;;;;;;8.37;7.60;;;4.40;99.90;;;;;;5121745;27;20523;-49
2023/01/09 06:11:08;;;;;;;9.37;7.77;;;4.40;99.90;;;;;;5123036;27;20788;-47
2023/01/09 06:13:35;;;;;;;12.70;8.00;;;4.30;99.90;;;;;;5117700;27;20474;-47
2023/01/09 06:16:02;;;;;;;10.83;7.60;;;4.10;99.90;;;;;;5117544;27;20919;-47
2023/01/09 06:18:29;;;;;;;14.47;11.50;;;4.00;99.90;;;;;;5123215;27;20520;-47
2023/01/09 06:20:56;;;;;;;10.57;9.33;;;4.10;99.90;;;;;;5125022;27;20536;-47
2023/01/09 06:23:23;;;;;;;10.23;7.70;;;4.20;99.90;;;;;;5120372;27;20486;-48
2023/01/09 06:25:49;;;;;;;9.50;7.87;;;4.10;99.90;;;;;;5123587;27;20936;-47
2023/01/09 06:28:18;;;;;;;10.23;8.90;;;4.10;99.90;;;;;;5118959;27;20467;-49
2023/01/09 06:30:45;;;;;;;11.80;9.40;;;4.00;99.90;;;;;;5121943;27;20480;-49
2023/01/09 06:33:11;;;;;;;11.80;10.60;;;3.90;99.90;;;;;;5128434;27;20472;-46
2023/01/09 06:35:38;;;;;;;9.20;7.37;;;3.80;99.90;;;;;;5130450;27;20727;-47
2023/01/09 06:38:05;;;;;;;8.80;2.83;;;3.90;99.90;;;;;;5130447;27;20529;-49
2023/01/09 06:40:32;;;;;;;2.70;2.20;;;5.70;99.90;;;;;;5131452;27;20944;-48
2023/01/09 06:42:59;;;;;;;2.60;1.77;;;6.60;99.90;;;;;;5130991;27;20531;-47
2023/01/09 06:45:27;;;;;;;4.20;2.50;;;6.30;99.90;;;;;;5132772;27;20461;-45
2023/01/09 06:47:54;;;;;;;1.87;1.57;;;6.40;99.90;;;;;;5133661;27;20472;-47
2023/01/09 06:50:21;;;;;;;2.33;1.30;;;6.20;99.90;;;;;;5121216;27;20914;-46
2023/01/09 06:52:48;;;;;;;1.97;1.53;;;6.10;99.90;;;;;;5112865;28;20528;-48
2023/01/09 06:55:16;;;;;;;1.37;1.27;;;6.10;99.90;;;;;;5111853;28;20543;-44
2023/01/09 06:57:43;;;;;;;2.23;1.57;;;6.00;99.90;;;;;;5112958;28;20445;-47
2023/01/09 07:00:11;;;;;;;1.70;1.60;;;5.90;99.90;;;;;;5112100;28;20436;-50
2023/01/09 07:02:40;;;;;;;3.80;3.47;;;5.80;99.90;;;;;;5112530;28;20506;-49
2023/01/09 07:05:10;;;;;;;2.30;1.67;;;5.50;99.90;;;;;;5111940;28;20508;-50
2023/01/09 07:07:37;;;;;;;1.70;1.40;;;5.30;99.90;;;;;;5112469;28;20456;-48
2023/01/09 07:10:04;;;;;;;1.60;1.40;;;5.60;99.90;;;;;;5112439;28;20506;-47
2023/01/09 07:12:31;;;;;;;1.40;1.10;;;5.50;99.90;;;;;;5110756;28;20536;-50
2023/01/09 07:14:58;;;;;;;1.40;0.97;;;5.50;99.90;;;;;;5109843;28;21042;-47
2023/01/09 07:17:25;;;;;;;2.30;1.40;;;5.40;99.90;;;;;;5110922;28;20474;-47
2023/01/09 07:19:53;;;;;;;3.23;1.37;;;5.40;99.90;;;;;;5111240;28;20473;-47
2023/01/09 07:22:20;;;;;;;1.30;1.00;;;5.40;99.90;;;;;;5111107;28;20897;-47
2023/01/09 07:24:47;;;;;;;3.60;3.20;;;5.30;99.90;;;;;;5110825;28;20496;-47
2023/01/09 07:27:14;;;;;;;2.53;2.20;;;5.20;99.90;;;;;;5111479;28;20446;-45
2023/01/09 07:29:41;;;;;;;2.60;2.40;;;5.20;99.90;;;;;;5112330;28;20529;-47
2023/01/09 07:32:08;;;;;;;2.40;1.80;;;5.20;99.90;;;;;;5112001;28;20962;-47
2023/01/09 07:34:35;;;;;;;3.03;1.80;;;5.10;99.90;;;;;;5110277;28;20489;-47
2023/01/09 07:37:03;;;;;;;2.00;1.40;;;5.00;99.90;;;;;;5112134;28;20527;-47
2023/01/09 07:39:30;;;;;;;2.40;1.73;;;5.10;99.90;;;;;;5110713;28;20477;-46
2023/01/09 07:41:57;;;;;;;2.77;1.37;;;5.20;99.90;;;;;;5111312;28;20477;-50
2023/01/09 07:44:24;;;;;;;2.40;1.70;;;5.20;99.90;;;;;;5110728;28;20490;-47
2023/01/09 07:46:51;;;;;;;2.13;1.60;;;5.20;99.90;;;;;;5124258;27;20472;-48
2023/01/09 07:49:17;;;;;;;2.00;1.80;;;5.10;99.90;;;;;;5132038;27;20469;-48
2023/01/09 07:51:47;;;;;;;2.27;1.90;;;4.80;99.90;;;;;;5132188;27;20535;-50
2023/01/09 07:54:15;;;;;;;2.90;2.60;;;4.80;99.90;;;;;;5131575;27;20818;-47
2023/01/09 07:56:42;;;;;;;5.97;4.40;;;4.80;99.90;;;;;;5132337;27;20477;-48
2023/01/09 07:59:09;;;;;;;4.67;3.40;;;4.80;99.90;;;;;;5132375;27;20450;-48
2023/01/09 08:01:36;;;;;;;3.77;2.90;;;4.70;99.90;;;;;;5131790;27;20475;-47
2023/01/09 08:04:03;;;;;;;2.77;2.20;;;4.70;99.90;;;;;;5131247;27;20889;-48
2023/01/09 08:06:30;;;;;;;3.17;2.03;;;4.80;99.90;;;;;;5131611;27;20441;-47
2023/01/09 08:08:57;;;;;;;5.80;3.20;;;4.90;99.90;;;;;;5132697;27;20453;-47
2023/01/09 08:11:26;;;;;;;2.70;2.47;;;4.90;99.90;;;;;;5131268;27;20927;-48
2023/01/09 08:13:53;;;;;;;3.00;2.00;;;4.90;99.90;;;;;;5129463;27;20536;-47
2023/01/09 08:16:20;;;;;;;2.10;1.50;;;5.00;99.90;;;;;;5130830;27;20479;-48
2023/01/09 08:18:47;;;;;;;2.03;1.20;;;4.90;99.90;;;;;;5132044;27;20969;-47
2023/01/09 08:21:14;;;;;;;2.17;1.33;;;4.90;99.90;;;;;;5131872;27;20460;-47
2023/01/09 08:23:40;;;;;;;1.40;1.07;;;5.00;99.90;;;;;;5131120;27;20918;-48
2023/01/09 08:26:07;;;;;;;1.87;1.63;;;4.90;99.90;;;;;;5131802;27;20477;-48
2023/01/09 08:28:37;;;;;;;6.47;3.10;;;4.90;99.90;;;;;;5131330;27;20440;-47
2023/01/09 08:31:04;;;;;;;2.13;1.90;;;5.00;99.90;;;;;;5131983;27;20530;-47
2023/01/09 08:33:31;;;;;;;1.97;1.77;;;4.90;99.90;;;;;;5128558;27;20473;-47
2023/01/09 08:35:58;;;;;;;2.50;2.20;;;4.90;99.90;;;;;;5133240;27;20442;-47
2023/01/09 08:38:25;;;;;;;3.63;2.30;;;4.80;99.90;;;;;;5130599;27;20538;-47
2023/01/09 08:40:52;;;;;;;3.10;2.30;;;4.80;99.90;;;;;;5131929;27;20517;-47
2023/01/09 08:48:49;;;;;;;2.83;2.30;;;4.70;99.90;;;;;;5131677;27;20420;-47
2023/01/09 08:51:16;;;;;;;2.20;1.77;;;4.70;99.90;;;;;;5132212;27;20560;-46
2023/01/09 08:53:43;;;;;;;1.87;1.53;;;4.80;99.90;;;;;;5130849;27;20883;-47
2023/01/09 08:56:10;;;;;;;1.57;1.20;;;4.90;99.90;;;;;;5131115;27;21022;-47
2023/01/09 08:58:37;;;;;;;2.20;1.30;;;4.80;99.90;;;;;;5130966;27;20569;-46
2023/01/09 09:01:07;;;;;;;7.33;5.60;;;4.70;99.90;;;;;;5131793;27;20473;-48
2023/01/09 09:03:34;;;;;;;11.30;7.20;;;4.70;99.90;;;;;;5130256;27;20810;-47
2023/01/09 09:06:01;;;;;;;6.77;5.80;;;4.60;99.90;;;;;;5131252;27;20472;-47
2023/01/09 09:08:28;;;;;;;4.50;3.43;;;4.70;99.90;;;;;;5130386;27;20481;-47
2023/01/09 09:10:56;;;;;;;3.80;3.30;;;4.60;99.90;;;;;;5131367;27;20576;-47
2023/01/09 09:13:23;;;;;;;8.30;4.33;;;4.70;99.90;;;;;;5129157;27;20494;-47
2023/01/09 09:15:50;;;;;;;3.70;3.00;;;4.80;99.90;;;;;;5131194;27;20547;-48
2023/01/09 09:18:18;;;;;;;3.40;2.57;;;4.80;99.90;;;;;;5130931;27;20477;-49
2023/01/09 09:20:45;;;;;;;3.63;2.80;;;4.80;99.90;;;;;;5131236;27;20491;-48
2023/01/09 09:23:12;;;;;;;3.47;2.50;;;4.70;99.90;;;;;;5130042;27;20454;-45
2023/01/09 09:25:39;;;;;;;3.37;2.93;;;4.80;99.90;;;;;;5130958;27;20836;-47
2023/01/09 09:28:06;;;;;;;3.40;3.10;;;4.80;99.90;;;;;;5131339;27;20874;-47
2023/01/09 09:30:33;;;;;;;3.40;2.73;;;4.80;99.90;;;;;;5130315;27;21013;-47
2023/01/09 09:33:02;;;;;;;3.00;2.70;;;4.80;99.90;;;;;;5128201;27;20488;-47
2023/01/09 09:35:31;;;;;;;3.53;2.50;;;4.80;99.90;;;;;;5126052;27;20540;-47
2023/01/09 09:37:59;;;;;;;4.70;3.67;;;4.80;99.90;;;;;;5130128;27;20471;-49
2023/01/09 09:40:42;;;;;;;3.60;3.10;;;4.80;99.90;;;;;;5130378;27;20580;-48
2023/01/09 09:46:26;;;;;;;3.90;2.70;;;4.90;99.90;;;;;;5129408;28;20925;-47
2023/01/09 09:48:57;;;;;;;3.13;2.57;;;5.00;99.90;;;;;;5130338;27;20469;-46
2023/01/09 09:51:36;;;;;;;5.97;3.07;;;5.10;99.90;;;;;;5130456;27;20580;-47
2023/01/09 09:54:08;;;;;;;4.77;2.80;;;5.10;99.90;;;;;;5130043;27;20496;-47
2023/01/09 09:56:41;;;;;;;4.40;3.07;;;5.10;99.90;;;;;;5130273;27;20444;-46
2023/01/09 09:59:14;;;;;;;4.47;4.07;;;5.00;99.90;;;;;;5130702;27;20528;-47
2023/01/09 10:01:45;;;;;;;4.17;3.63;;;5.00;99.90;;;;;;5130838;27;20507;-47
2023/01/09 10:04:16;;;;;;;4.97;3.87;;;4.90;99.90;;;;;;5131367;27;20497;-50
2023/01/09 10:06:48;;;;;;;5.17;4.43;;;4.80;99.90;;;;;;5134167;27;20481;-47
2023/01/09 10:09:24;;;;;;;4.43;4.03;;;4.90;99.90;;;;;;5132930;27;20441;-45
2023/01/09 10:11:58;;;;;;;4.30;3.90;;;4.90;99.90;;;;;;5134450;27;20483;-47
2023/01/09 10:14:25;;;;;;;4.43;4.03;;;4.90;99.90;;;;;;5132332;27;20549;-47
2023/01/09 10:17:11;;;;;;;4.00;3.07;;;4.90;99.90;;;;;;5134287;27;21022;-47
2023/01/09 10:19:56;;;;;;;4.70;3.97;;;4.90;99.90;;;;;;5132819;27;20520;-47
2023/01/09 10:22:31;;;;;;;3.50;2.80;;;4.90;99.90;;;;;;5133963;27;20448;-49
2023/01/09 10:25:10;;;;;;;4.63;3.60;;;5.00;99.90;;;;;;5133385;27;20514;-47
2023/01/09 10:27:54;;;;;;;4.07;3.57;;;5.00;99.90;;;;;;5133934;27;20514;-47
2023/01/09 10:30:32;;;;;;;5.67;4.37;;;5.00;99.90;;;;;;5120294;27;20574;-47
2023/01/09 10:33:11;;;;;;;4.17;2.70;;;5.00;99.90;;;;;;5112409;27;20556;-49
2023/01/09 10:35:55;;;;;;;4.23;3.80;;;5.10;99.90;;;;;;5111982;28;20553;-49
2023/01/09 10:38:29;;;;;;;5.73;4.30;;;5.20;99.90;;;;;;5111647;28;20499;-47
2023/01/09 10:41:01;;;;;;;6.33;4.60;;;5.20;99.90;;;;;;5111993;28;20481;-47
2023/01/09 10:43:34;;;;;;;5.23;4.47;;;5.20;99.90;;;;;;5109951;28;20442;-48
2023/01/09 10:46:05;;;;;;;6.33;4.50;;;5.30;99.90;;;;;;5111422;28;20467;-48
2023/01/09 10:48:34;;;;;;;5.50;4.57;;;5.30;99.90;;;;;;5109876;27;20497;-48
2023/01/09 10:51:03;;;;;;;5.90;4.90;;;5.30;99.90;;;;;;5112196;28;20831;-47
2023/01/09 10:53:37;;;;;;;4.20;3.67;;;5.30;99.90;;;;;;5111997;28;20484;-47
2023/01/09 10:56:13;;;;;;;6.80;3.90;;;5.20;99.90;;;;;;5112959;28;20445;-48
2023/01/09 10:58:40;;;;;;;5.80;4.10;;;5.10;99.90;;;;;;5112614;28;20998;-47
2023/01/09 11:01:09;;;;;;;4.37;3.90;;;5.00;99.90;;;;;;5111330;27;20533;-48
2023/01/09 11:03:37;;;;;;;4.40;3.87;;;5.00;99.90;;;;;;5111051;28;20473;-48
2023/01/09 11:06:10;;;;;;;7.77;6.13;;;5.10;99.90;;;;;;5111739;28;20481;-48
2023/01/09 11:08:41;;;;;;;7.70;4.70;;;5.10;99.90;;;;;;5111937;28;20477;-47
2023/01/09 11:11:08;;;;;;;6.20;5.27;;;5.20;99.90;;;;;;5112741;27;20817;-47
2023/01/09 11:13:42;;;;;;;5.03;4.37;;;5.30;99.90;;;;;;5110911;28;21011;-47
2023/01/09 11:16:17;;;;;;;2.83;2.53;;;5.30;99.90;;;;;;5111468;28;20449;-47
2023/01/09 11:18:51;;;;;;;2.93;2.63;;;5.30;99.90;;;;;;5112888;28;20491;-49
2023/01/09 11:21:30;;;;;;;4.20;3.20;;;5.20;99.90;;;;;;5111977;28;20521;-47
2023/01/09 11:24:28;;;;;;;9.20;6.10;;;5.20;99.90;;;;;;5111728;28;20483;-50
2023/01/09 11:27:31;;;;;;;6.00;5.17;;;5.10;99.90;;;;;;5112471;28;20438;-48
2023/01/09 11:30:19;;;;;;;7.20;5.93;;;5.00;99.90;;;;;;5111043;28;20438;-47
2023/01/09 11:32:47;;;;;;;5.83;5.10;;;4.90;99.90;;;;;;5111422;28;20953;-47
2023/01/09 11:35:29;;;;;;;6.70;5.43;;;4.90;99.90;;;;;;5108566;28;20462;-44
2023/01/09 11:38:04;;;;;;;5.30;4.60;;;4.90;99.90;;;;;;5116115;27;20939;-48
2023/01/09 11:40:43;;;;;;;4.90;3.37;;;5.00;99.90;;;;;;5119761;27;20476;-47
2023/01/09 11:43:29;;;;;;;4.40;2.90;;;5.10;99.90;;;;;;5109996;28;20726;-47
2023/01/09 11:45:57;;;;;;;3.27;2.97;;;5.10;99.90;;;;;;5116906;27;20448;-47
2023/01/09 11:48:31;;;;;;;4.60;4.10;;;5.20;99.90;;;;;;5120404;27;20882;-48
2023/01/09 11:50:59;;;;;;;3.40;3.10;;;5.20;99.90;;;;;;5113720;27;20550;-47
2023/01/09 11:53:27;;;;;;;3.50;3.20;;;5.30;99.90;;;;;;5122961;27;20461;-47
2023/01/09 11:56:01;;;;;;;8.70;6.40;;;5.40;99.90;;;;;;5126089;27;20540;-46
2023/01/09 11:58:33;;;;;;;9.43;7.73;;;5.40;99.90;;;;;;5109143;28;20445;-48
2023/01/09 12:01:14;;;;;;;10.40;7.20;;;5.30;99.90;;;;;;5110772;28;20458;-48
2023/01/09 12:04:14;;;;;;;6.03;5.43;;;5.30;99.90;;;;;;5109706;28;20524;-47
2023/01/09 12:06:49;;;;;;;5.73;4.73;;;5.40;99.90;;;;;;5096104;28;20486;-47
2023/01/09 12:09:24;;;;;;;5.53;4.67;;;5.30;99.90;;;;;;5110460;28;21037;-46
2023/01/09 12:11:56;;;;;;;6.73;4.80;;;5.20;99.90;;;;;;5111781;28;20567;-47
2023/01/09 12:14:36;;;;;;;5.70;5.10;;;5.20;99.90;;;;;;5109864;28;20501;-47
2023/01/09 12:17:35;;;;;;;6.43;4.60;;;5.30;99.90;;;;;;5109994;28;20485;-49
2023/01/09 12:20:24;;;;;;;5.50;4.00;;;5.40;99.90;;;;;;5108045;28;20526;-47
2023/01/09 12:23:02;;;;;;;5.10;4.50;;;5.30;99.90;;;;;;5110338;28;20478;-44
2023/01/09 12:25:41;;;;;;;8.00;6.37;;;5.10;99.90;;;;;;5110380;28;20556;-47
2023/01/09 12:28:38;;;;;;;5.77;5.17;;;5.00;99.90;;;;;;5109505;28;20478;-48
2023/01/09 12:31:17;;;;;;;7.00;4.87;;;5.00;99.90;;;;;;5105813;28;20842;-47
2023/01/09 12:33:55;;;;;;;6.87;5.67;;;5.20;99.90;;;;;;5107469;28;20540;-48
2023/01/09 12:36:30;;;;;;;6.87;4.80;;;5.20;99.90;;;;;;5109239;28;20478;-49
2023/01/09 12:39:07;;;;;;;7.83;5.17;;;5.30;99.90;;;;;;5109605;28;20442;-47
2023/01/09 12:41:53;;;;;;;6.90;6.30;;;5.20;99.90;;;;;;5109141;28;20528;-47
2023/01/09 12:44:36;;;;;;;5.40;4.93;;;5.30;99.90;;;;;;5108144;28;20496;-48
2023/01/09 12:47:21;;;;;;;9.50;6.80;;;5.40;99.90;;;;;;5115864;27;21001;-47
2023/01/09 12:49:54;;;;;;;13.10;9.40;;;5.30;99.90;;;;;;5109600;28;20789;-45
2023/01/09 12:52:24;;;;;;;10.60;9.30;;;5.10;99.90;;;;;;5110295;28;20485;-47
2023/01/09 12:54:56;;;;;;;11.17;9.23;;;5.10;99.90;;;;;;5110182;28;20559;-49
2023/01/09 12:57:30;;;;;;;13.77;10.10;;;5.20;99.90;;;;;;5109571;28;20812;-48
2023/01/09 13:00:02;;;;;;;10.87;9.53;;;5.30;99.90;;;;;;5110845;28;20478;-49
2023/01/09 13:02:35;;;;;;;10.83;8.80;;;5.30;99.90;;;;;;5110415;28;20534;-47
2023/01/09 13:05:09;;;;;;;21.70;17.47;;;5.40;99.90;;;;;;5109187;28;20504;-47
2023/01/09 13:07:43;;;;;;;27.70;21.77;;;5.30;99.90;;;;;;5110221;28;20524;-47
2023/01/09 13:10:19;;;;;;;11.83;9.80;;;5.20;99.90;;;;;;5110856;28;20844;-47
2023/01/09 13:12:49;;;;;;;12.20;9.23;;;5.10;99.90;;;;;;5110437;28;20498;-48
2023/01/09 13:15:27;;;;;;;12.60;10.97;;;5.10;99.90;;;;;;5109845;28;20672;-46
2023/01/09 13:17:58;;;;;;;12.73;9.50;;;5.00;99.90;;;;;;5110635;28;20532;-48
2023/01/09 13:20:32;;;;;;;14.77;11.80;;;5.00;99.90;;;;;;5109498;28;20534;-47
2023/01/09 13:23:01;;;;;;;14.50;10.70;;;5.10;99.90;;;;;;5109369;28;20946;-47
2023/01/09 13:25:42;;;;;;;10.67;9.50;;;5.20;99.90;;;;;;5110116;28;20501;-47